sensor_id;sensor_type;location;lat;lon;timestamp;P1;durP1;ratioP1;P2;durP2;ratioP2
43552;SDS011;29153;42.696;23.218;2023-07-31T00:00:43;5.10;;;2.95;;
43552;SDS011;29153;42.696;23.218;2023-07-31T00:03:12;5.12;;;3.20;;
43552;SDS011;29153;42.696;23.218;2023-07-31T00:05:41;5.85;;;2.92;;
43552;SDS011;29153;42.696;23.218;2023-07-31T00:08:09;5.55;;;3.27;;
43552;SDS011;29153;42.696;23.218;2023-07-31T00:10:37;10.13;;;4.45;;
43552;SDS011;29153;42.696;23.218;2023-07-31T00:13:04;5.47;;;3.87;;
43552;SDS011;29153;42.696;23.218;2023-07-31T00:15:32;5.95;;;4.28;;
43552;SDS011;29153;42.696;23.218;2023-07-31T00:17:59;7.22;;;4.25;;
43552;SDS011;29153;42.696;23.218;2023-07-31T00:20:27;6.92;;;4.72;;
43552;SDS011;29153;42.696;23.218;2023-07-31T00:22:55;7.58;;;4.75;;
43552;SDS011;29153;42.696;23.218;2023-07-31T00:25:22;7.65;;;4.15;;
43552;SDS011;29153;42.696;23.218;2023-07-31T00:27:50;6.40;;;4.85;;
43552;SDS011;29153;42.696;23.218;2023-07-31T00:30:18;8.18;;;5.65;;
43552;SDS011;29153;42.696;23.218;2023-07-31T00:32:45;8.78;;;6.33;;
43552;SDS011;29153;42.696;23.218;2023-07-31T00:35:13;10.65;;;6.30;;
43552;SDS011;29153;42.696;23.218;2023-07-31T00:37:40;8.70;;;6.67;;
43552;SDS011;29153;42.696;23.218;2023-07-31T00:40:08;10.58;;;7.03;;
43552;SDS011;29153;42.696;23.218;2023-07-31T00:42:36;8.63;;;6.62;;
43552;SDS011;29153;42.696;23.218;2023-07-31T00:45:04;10.55;;;7.58;;
43552;SDS011;29153;42.696;23.218;2023-07-31T00:47:32;11.12;;;7.35;;
43552;SDS011;29153;42.696;23.218;2023-07-31T00:50:00;10.20;;;7.97;;
43552;SDS011;29153;42.696;23.218;2023-07-31T00:52:27;12.58;;;9.00;;
43552;SDS011;29153;42.696;23.218;2023-07-31T00:54:55;15.63;;;9.70;;
43552;SDS011;29153;42.696;23.218;2023-07-31T00:57:23;13.38;;;9.30;;
43552;SDS011;29153;42.696;23.218;2023-07-31T00:59:50;14.50;;;9.93;;
43552;SDS011;29153;42.696;23.218;2023-07-31T01:02:18;15.68;;;10.90;;
43552;SDS011;29153;42.696;23.218;2023-07-31T01:04:46;16.42;;;11.43;;
43552;SDS011;29153;42.696;23.218;2023-07-31T01:07:17;16.77;;;11.30;;
43552;SDS011;29153;42.696;23.218;2023-07-31T01:09:45;16.65;;;11.40;;
43552;SDS011;29153;42.696;23.218;2023-07-31T01:12:18;15.40;;;11.12;;
43552;SDS011;29153;42.696;23.218;2023-07-31T01:15:05;14.50;;;10.72;;
43552;SDS011;29153;42.696;23.218;2023-07-31T01:17:39;16.82;;;12.03;;
43552;SDS011;29153;42.696;23.218;2023-07-31T01:20:11;21.07;;;13.45;;
43552;SDS011;29153;42.696;23.218;2023-07-31T01:25:19;21.57;;;15.23;;
43552;SDS011;29153;42.696;23.218;2023-07-31T01:27:58;20.90;;;14.53;;
43552;SDS011;29153;42.696;23.218;2023-07-31T01:30:23;25.37;;;15.58;;
43552;SDS011;29153;42.696;23.218;2023-07-31T01:32:53;25.95;;;16.00;;
43552;SDS011;29153;42.696;23.218;2023-07-31T01:35:22;28.85;;;17.45;;
43552;SDS011;29153;42.696;23.218;2023-07-31T01:37:52;26.57;;;17.10;;
43552;SDS011;29153;42.696;23.218;2023-07-31T01:40:20;24.65;;;17.10;;
43552;SDS011;29153;42.696;23.218;2023-07-31T01:42:48;27.25;;;17.75;;
43552;SDS011;29153;42.696;23.218;2023-07-31T01:45:15;29.52;;;18.07;;
43552;SDS011;29153;42.696;23.218;2023-07-31T01:47:43;28.77;;;17.50;;
43552;SDS011;29153;42.696;23.218;2023-07-31T01:50:11;27.73;;;17.35;;
43552;SDS011;29153;42.696;23.218;2023-07-31T01:52:38;29.35;;;17.70;;
43552;SDS011;29153;42.696;23.218;2023-07-31T01:55:06;27.17;;;18.23;;
43552;SDS011;29153;42.696;23.218;2023-07-31T01:57:34;27.93;;;18.05;;
43552;SDS011;29153;42.696;23.218;2023-07-31T02:00:03;26.52;;;17.37;;
43552;SDS011;29153;42.696;23.218;2023-07-31T02:02:31;30.32;;;19.30;;
43552;SDS011;29153;42.696;23.218;2023-07-31T02:04:59;27.80;;;17.60;;
43552;SDS011;29153;42.696;23.218;2023-07-31T02:07:27;25.75;;;17.27;;
43552;SDS011;29153;42.696;23.218;2023-07-31T02:09:55;28.52;;;19.23;;
43552;SDS011;29153;42.696;23.218;2023-07-31T02:12:22;28.38;;;17.95;;
43552;SDS011;29153;42.696;23.218;2023-07-31T02:14:50;24.80;;;17.07;;
43552;SDS011;29153;42.696;23.218;2023-07-31T02:17:18;27.85;;;17.92;;
43552;SDS011;29153;42.696;23.218;2023-07-31T02:19:46;29.15;;;18.02;;
43552;SDS011;29153;42.696;23.218;2023-07-31T02:22:14;25.70;;;17.50;;
43552;SDS011;29153;42.696;23.218;2023-07-31T02:24:43;27.70;;;17.80;;
43552;SDS011;29153;42.696;23.218;2023-07-31T02:27:11;24.63;;;16.80;;
43552;SDS011;29153;42.696;23.218;2023-07-31T02:29:38;26.82;;;17.07;;
43552;SDS011;29153;42.696;23.218;2023-07-31T02:32:06;24.77;;;16.93;;
43552;SDS011;29153;42.696;23.218;2023-07-31T02:37:01;25.50;;;15.85;;
43552;SDS011;29153;42.696;23.218;2023-07-31T02:39:28;25.82;;;16.95;;
43552;SDS011;29153;42.696;23.218;2023-07-31T02:41:56;25.15;;;16.80;;
43552;SDS011;29153;42.696;23.218;2023-07-31T02:44:23;24.57;;;16.23;;
43552;SDS011;29153;42.696;23.218;2023-07-31T02:46:51;24.07;;;16.82;;
43552;SDS011;29153;42.696;23.218;2023-07-31T02:49:19;25.97;;;16.93;;
43552;SDS011;29153;42.696;23.218;2023-07-31T02:51:46;25.60;;;17.57;;
43552;SDS011;29153;42.696;23.218;2023-07-31T02:54:14;25.43;;;16.75;;
43552;SDS011;29153;42.696;23.218;2023-07-31T02:56:43;24.52;;;15.93;;
43552;SDS011;29153;42.696;23.218;2023-07-31T02:59:11;26.30;;;17.20;;
43552;SDS011;29153;42.696;23.218;2023-07-31T03:01:38;25.85;;;17.65;;
43552;SDS011;29153;42.696;23.218;2023-07-31T03:04:06;25.75;;;17.42;;
43552;SDS011;29153;42.696;23.218;2023-07-31T03:06:34;24.30;;;16.75;;
43552;SDS011;29153;42.696;23.218;2023-07-31T03:09:04;26.00;;;16.55;;
43552;SDS011;29153;42.696;23.218;2023-07-31T03:11:32;25.88;;;16.80;;
43552;SDS011;29153;42.696;23.218;2023-07-31T03:13:59;23.60;;;16.27;;
43552;SDS011;29153;42.696;23.218;2023-07-31T03:16:30;24.18;;;16.30;;
43552;SDS011;29153;42.696;23.218;2023-07-31T03:18:56;25.05;;;17.02;;
43552;SDS011;29153;42.696;23.218;2023-07-31T03:21:23;24.15;;;16.12;;
43552;SDS011;29153;42.696;23.218;2023-07-31T03:23:51;26.55;;;17.02;;
43552;SDS011;29153;42.696;23.218;2023-07-31T03:26:19;24.35;;;16.57;;
43552;SDS011;29153;42.696;23.218;2023-07-31T03:28:46;26.25;;;16.75;;
43552;SDS011;29153;42.696;23.218;2023-07-31T03:31:15;26.50;;;16.00;;
43552;SDS011;29153;42.696;23.218;2023-07-31T03:33:42;26.23;;;15.95;;
43552;SDS011;29153;42.696;23.218;2023-07-31T03:36:10;26.80;;;17.40;;
43552;SDS011;29153;42.696;23.218;2023-07-31T03:38:39;26.07;;;16.82;;
43552;SDS011;29153;42.696;23.218;2023-07-31T03:41:07;25.02;;;17.12;;
43552;SDS011;29153;42.696;23.218;2023-07-31T03:43:36;24.87;;;16.35;;
43552;SDS011;29153;42.696;23.218;2023-07-31T03:46:07;26.75;;;16.93;;
43552;SDS011;29153;42.696;23.218;2023-07-31T03:48:36;27.98;;;17.00;;
43552;SDS011;29153;42.696;23.218;2023-07-31T03:51:06;28.60;;;17.62;;
43552;SDS011;29153;42.696;23.218;2023-07-31T03:53:33;27.60;;;17.07;;
43552;SDS011;29153;42.696;23.218;2023-07-31T03:56:01;28.27;;;16.62;;
43552;SDS011;29153;42.696;23.218;2023-07-31T03:58:28;28.32;;;17.42;;
43552;SDS011;29153;42.696;23.218;2023-07-31T04:00:56;27.95;;;17.10;;
43552;SDS011;29153;42.696;23.218;2023-07-31T04:03:24;27.13;;;16.85;;
43552;SDS011;29153;42.696;23.218;2023-07-31T04:05:53;28.47;;;17.20;;
43552;SDS011;29153;42.696;23.218;2023-07-31T04:08:22;28.25;;;16.23;;
43552;SDS011;29153;42.696;23.218;2023-07-31T04:10:49;31.30;;;17.17;;
43552;SDS011;29153;42.696;23.218;2023-07-31T04:13:17;29.90;;;17.65;;
43552;SDS011;29153;42.696;23.218;2023-07-31T04:15:51;29.23;;;18.00;;
43552;SDS011;29153;42.696;23.218;2023-07-31T04:18:19;28.62;;;18.17;;
43552;SDS011;29153;42.696;23.218;2023-07-31T04:20:47;29.85;;;18.27;;
43552;SDS011;29153;42.696;23.218;2023-07-31T04:23:15;31.15;;;18.90;;
43552;SDS011;29153;42.696;23.218;2023-07-31T04:25:42;28.92;;;17.55;;
43552;SDS011;29153;42.696;23.218;2023-07-31T04:28:10;27.17;;;17.27;;
43552;SDS011;29153;42.696;23.218;2023-07-31T04:30:38;30.82;;;16.90;;
43552;SDS011;29153;42.696;23.218;2023-07-31T04:33:07;25.82;;;16.45;;
43552;SDS011;29153;42.696;23.218;2023-07-31T04:35:35;25.65;;;16.25;;
43552;SDS011;29153;42.696;23.218;2023-07-31T04:38:03;26.75;;;15.35;;
43552;SDS011;29153;42.696;23.218;2023-07-31T04:40:31;29.07;;;16.25;;
43552;SDS011;29153;42.696;23.218;2023-07-31T04:42:58;30.23;;;17.27;;
43552;SDS011;29153;42.696;23.218;2023-07-31T04:45:26;29.48;;;17.10;;
43552;SDS011;29153;42.696;23.218;2023-07-31T04:47:54;26.37;;;15.60;;
43552;SDS011;29153;42.696;23.218;2023-07-31T04:50:23;25.77;;;15.48;;
43552;SDS011;29153;42.696;23.218;2023-07-31T04:52:50;23.45;;;14.83;;
43552;SDS011;29153;42.696;23.218;2023-07-31T04:55:19;23.22;;;14.65;;
43552;SDS011;29153;42.696;23.218;2023-07-31T04:57:48;23.83;;;15.85;;
43552;SDS011;29153;42.696;23.218;2023-07-31T05:00:16;21.55;;;14.40;;
43552;SDS011;29153;42.696;23.218;2023-07-31T05:05:10;22.20;;;13.62;;
43552;SDS011;29153;42.696;23.218;2023-07-31T05:07:41;19.32;;;13.40;;
43552;SDS011;29153;42.696;23.218;2023-07-31T05:10:09;19.20;;;14.10;;
43552;SDS011;29153;42.696;23.218;2023-07-31T05:12:38;19.23;;;13.53;;
43552;SDS011;29153;42.696;23.218;2023-07-31T05:15:09;17.07;;;12.35;;
43552;SDS011;29153;42.696;23.218;2023-07-31T05:17:36;15.93;;;11.48;;
43552;SDS011;29153;42.696;23.218;2023-07-31T05:20:08;16.10;;;10.40;;
43552;SDS011;29153;42.696;23.218;2023-07-31T05:22:36;15.70;;;11.33;;
43552;SDS011;29153;42.696;23.218;2023-07-31T05:25:07;16.85;;;10.75;;
43552;SDS011;29153;42.696;23.218;2023-07-31T05:27:35;12.70;;;9.85;;
43552;SDS011;29153;42.696;23.218;2023-07-31T05:30:03;13.25;;;9.78;;
43552;SDS011;29153;42.696;23.218;2023-07-31T05:32:31;13.60;;;9.70;;
43552;SDS011;29153;42.696;23.218;2023-07-31T05:34:59;15.35;;;8.60;;
43552;SDS011;29153;42.696;23.218;2023-07-31T05:37:26;11.90;;;8.30;;
43552;SDS011;29153;42.696;23.218;2023-07-31T05:39:54;13.62;;;8.33;;
43552;SDS011;29153;42.696;23.218;2023-07-31T05:42:22;9.13;;;6.33;;
43552;SDS011;29153;42.696;23.218;2023-07-31T05:44:49;9.73;;;6.78;;
43552;SDS011;29153;42.696;23.218;2023-07-31T05:47:17;9.38;;;6.37;;
43552;SDS011;29153;42.696;23.218;2023-07-31T05:49:45;9.28;;;6.40;;
43552;SDS011;29153;42.696;23.218;2023-07-31T05:52:12;7.58;;;5.25;;
43552;SDS011;29153;42.696;23.218;2023-07-31T05:54:48;7.67;;;5.05;;
43552;SDS011;29153;42.696;23.218;2023-07-31T05:57:18;8.85;;;5.50;;
43552;SDS011;29153;42.696;23.218;2023-07-31T05:59:46;8.45;;;4.92;;
43552;SDS011;29153;42.696;23.218;2023-07-31T06:02:15;8.20;;;5.05;;
43552;SDS011;29153;42.696;23.218;2023-07-31T06:04:42;10.32;;;4.50;;
43552;SDS011;29153;42.696;23.218;2023-07-31T06:07:12;5.40;;;3.47;;
43552;SDS011;29153;42.696;23.218;2023-07-31T06:09:43;6.62;;;4.37;;
43552;SDS011;29153;42.696;23.218;2023-07-31T06:12:15;5.55;;;4.35;;
43552;SDS011;29153;42.696;23.218;2023-07-31T06:14:46;7.80;;;4.60;;
43552;SDS011;29153;42.696;23.218;2023-07-31T06:17:24;5.47;;;3.98;;
43552;SDS011;29153;42.696;23.218;2023-07-31T06:19:56;8.05;;;3.55;;
43552;SDS011;29153;42.696;23.218;2023-07-31T06:22:29;7.40;;;3.72;;
43552;SDS011;29153;42.696;23.218;2023-07-31T06:27:54;13.45;;;3.62;;
43552;SDS011;29153;42.696;23.218;2023-07-31T06:30:36;7.08;;;3.67;;
43552;SDS011;29153;42.696;23.218;2023-07-31T06:33:06;13.50;;;3.62;;
43552;SDS011;29153;42.696;23.218;2023-07-31T06:35:35;9.03;;;3.87;;
43552;SDS011;29153;42.696;23.218;2023-07-31T06:38:15;9.65;;;2.98;;
43552;SDS011;29153;42.696;23.218;2023-07-31T06:40:53;13.65;;;3.60;;
43552;SDS011;29153;42.696;23.218;2023-07-31T06:43:19;13.95;;;3.92;;
43552;SDS011;29153;42.696;23.218;2023-07-31T06:45:46;16.00;;;3.25;;
43552;SDS011;29153;42.696;23.218;2023-07-31T06:48:20;5.35;;;2.72;;
43552;SDS011;29153;42.696;23.218;2023-07-31T06:50:55;6.08;;;2.90;;
43552;SDS011;29153;42.696;23.218;2023-07-31T06:53:19;4.50;;;2.55;;
43552;SDS011;29153;42.696;23.218;2023-07-31T06:55:50;5.92;;;2.80;;
43552;SDS011;29153;42.696;23.218;2023-07-31T06:58:17;5.17;;;2.62;;
43552;SDS011;29153;42.696;23.218;2023-07-31T07:00:48;4.30;;;2.40;;
43552;SDS011;29153;42.696;23.218;2023-07-31T07:03:18;4.15;;;2.27;;
43552;SDS011;29153;42.696;23.218;2023-07-31T07:05:46;4.15;;;2.05;;
43552;SDS011;29153;42.696;23.218;2023-07-31T07:08:13;4.30;;;2.60;;
43552;SDS011;29153;42.696;23.218;2023-07-31T07:10:45;3.70;;;2.30;;
43552;SDS011;29153;42.696;23.218;2023-07-31T07:13:14;3.55;;;2.33;;
43552;SDS011;29153;42.696;23.218;2023-07-31T07:16:30;6.55;;;2.42;;
43552;SDS011;29153;42.696;23.218;2023-07-31T07:21:17;5.28;;;2.40;;
43552;SDS011;29153;42.696;23.218;2023-07-31T07:23:28;11.00;;;2.70;;
43552;SDS011;29153;42.696;23.218;2023-07-31T07:25:57;5.95;;;2.17;;
43552;SDS011;29153;42.696;23.218;2023-07-31T07:28:25;3.72;;;1.92;;
43552;SDS011;29153;42.696;23.218;2023-07-31T07:30:55;6.25;;;2.20;;
43552;SDS011;29153;42.696;23.218;2023-07-31T07:33:24;3.67;;;2.22;;
43552;SDS011;29153;42.696;23.218;2023-07-31T07:35:55;4.33;;;1.72;;
43552;SDS011;29153;42.696;23.218;2023-07-31T07:38:27;3.37;;;2.08;;
43552;SDS011;29153;42.696;23.218;2023-07-31T07:40:55;7.22;;;2.08;;
43552;SDS011;29153;42.696;23.218;2023-07-31T07:43:23;4.17;;;2.47;;
43552;SDS011;29153;42.696;23.218;2023-07-31T07:45:52;4.33;;;2.50;;
43552;SDS011;29153;42.696;23.218;2023-07-31T07:48:19;5.55;;;2.30;;
43552;SDS011;29153;42.696;23.218;2023-07-31T07:50:53;4.03;;;2.02;;
43552;SDS011;29153;42.696;23.218;2023-07-31T07:53:24;4.42;;;2.20;;
43552;SDS011;29153;42.696;23.218;2023-07-31T07:55:52;4.33;;;2.00;;
43552;SDS011;29153;42.696;23.218;2023-07-31T07:58:19;5.17;;;1.92;;
43552;SDS011;29153;42.696;23.218;2023-07-31T08:00:53;3.62;;;1.70;;
43552;SDS011;29153;42.696;23.218;2023-07-31T08:03:20;3.55;;;2.22;;
43552;SDS011;29153;42.696;23.218;2023-07-31T08:05:51;4.87;;;1.70;;
43552;SDS011;29153;42.696;23.218;2023-07-31T08:10:45;4.00;;;1.70;;
43552;SDS011;29153;42.696;23.218;2023-07-31T08:13:15;4.58;;;1.85;;
43552;SDS011;29153;42.696;23.218;2023-07-31T08:15:44;5.28;;;1.65;;
43552;SDS011;29153;42.696;23.218;2023-07-31T08:18:11;4.05;;;1.65;;
43552;SDS011;29153;42.696;23.218;2023-07-31T08:20:41;3.62;;;1.57;;
43552;SDS011;29153;42.696;23.218;2023-07-31T08:23:12;2.87;;;1.60;;
43552;SDS011;29153;42.696;23.218;2023-07-31T08:25:40;3.77;;;1.60;;
43552;SDS011;29153;42.696;23.218;2023-07-31T08:28:11;4.08;;;1.82;;
43552;SDS011;29153;42.696;23.218;2023-07-31T08:30:39;2.60;;;1.50;;
43552;SDS011;29153;42.696;23.218;2023-07-31T08:33:08;4.87;;;1.62;;
43552;SDS011;29153;42.696;23.218;2023-07-31T08:35:37;3.00;;;1.55;;
43552;SDS011;29153;42.696;23.218;2023-07-31T08:43:03;2.98;;;1.65;;
43552;SDS011;29153;42.696;23.218;2023-07-31T08:45:30;5.90;;;1.75;;
43552;SDS011;29153;42.696;23.218;2023-07-31T08:47:57;2.92;;;1.57;;
43552;SDS011;29153;42.696;23.218;2023-07-31T08:50:26;2.90;;;1.92;;
43552;SDS011;29153;42.696;23.218;2023-07-31T08:55:20;5.10;;;1.70;;
43552;SDS011;29153;42.696;23.218;2023-07-31T08:57:55;3.05;;;1.62;;
43552;SDS011;29153;42.696;23.218;2023-07-31T09:00:25;2.65;;;1.37;;
43552;SDS011;29153;42.696;23.218;2023-07-31T09:03:01;4.33;;;1.72;;
43552;SDS011;29153;42.696;23.218;2023-07-31T09:05:40;7.15;;;2.15;;
43552;SDS011;29153;42.696;23.218;2023-07-31T09:08:00;6.22;;;1.75;;
43552;SDS011;29153;42.696;23.218;2023-07-31T09:10:33;2.95;;;1.70;;
43552;SDS011;29153;42.696;23.218;2023-07-31T09:13:01;3.40;;;1.82;;
43552;SDS011;29153;42.696;23.218;2023-07-31T09:15:33;5.72;;;1.80;;
43552;SDS011;29153;42.696;23.218;2023-07-31T09:18:03;3.95;;;1.82;;
43552;SDS011;29153;42.696;23.218;2023-07-31T09:20:32;3.42;;;1.85;;
43552;SDS011;29153;42.696;23.218;2023-07-31T09:23:07;3.17;;;1.75;;
43552;SDS011;29153;42.696;23.218;2023-07-31T09:25:38;4.83;;;1.95;;
43552;SDS011;29153;42.696;23.218;2023-07-31T09:28:07;4.42;;;2.05;;
43552;SDS011;29153;42.696;23.218;2023-07-31T09:30:45;3.35;;;1.57;;
43552;SDS011;29153;42.696;23.218;2023-07-31T09:33:20;3.30;;;1.77;;
43552;SDS011;29153;42.696;23.218;2023-07-31T09:35:47;3.90;;;1.87;;
43552;SDS011;29153;42.696;23.218;2023-07-31T09:38:15;3.85;;;1.65;;
43552;SDS011;29153;42.696;23.218;2023-07-31T09:40:44;5.17;;;1.98;;
43552;SDS011;29153;42.696;23.218;2023-07-31T09:43:17;4.05;;;1.60;;
43552;SDS011;29153;42.696;23.218;2023-07-31T09:45:47;2.90;;;1.70;;
43552;SDS011;29153;42.696;23.218;2023-07-31T09:48:16;2.65;;;1.27;;
43552;SDS011;29153;42.696;23.218;2023-07-31T09:50:45;2.83;;;1.30;;
43552;SDS011;29153;42.696;23.218;2023-07-31T09:53:14;2.95;;;1.50;;
43552;SDS011;29153;42.696;23.218;2023-07-31T09:55:45;2.83;;;1.22;;
43552;SDS011;29153;42.696;23.218;2023-07-31T09:58:13;4.33;;;1.55;;
43552;SDS011;29153;42.696;23.218;2023-07-31T10:00:40;2.85;;;1.52;;
43552;SDS011;29153;42.696;23.218;2023-07-31T10:03:09;3.12;;;1.32;;
43552;SDS011;29153;42.696;23.218;2023-07-31T10:05:42;2.65;;;1.52;;
43552;SDS011;29153;42.696;23.218;2023-07-31T10:08:11;3.72;;;1.85;;
43552;SDS011;29153;42.696;23.218;2023-07-31T10:10:46;2.47;;;1.35;;
43552;SDS011;29153;42.696;23.218;2023-07-31T10:13:12;3.92;;;1.42;;
43552;SDS011;29153;42.696;23.218;2023-07-31T10:15:40;2.10;;;1.20;;
43552;SDS011;29153;42.696;23.218;2023-07-31T10:18:09;2.80;;;1.10;;
43552;SDS011;29153;42.696;23.218;2023-07-31T10:20:37;3.52;;;1.35;;
43552;SDS011;29153;42.696;23.218;2023-07-31T10:23:06;3.05;;;1.40;;
43552;SDS011;29153;42.696;23.218;2023-07-31T10:25:34;2.37;;;1.17;;
43552;SDS011;29153;42.696;23.218;2023-07-31T10:28:03;4.20;;;1.47;;
43552;SDS011;29153;42.696;23.218;2023-07-31T10:30:32;5.22;;;1.32;;
43552;SDS011;29153;42.696;23.218;2023-07-31T10:33:02;2.72;;;1.02;;
43552;SDS011;29153;42.696;23.218;2023-07-31T10:35:32;4.47;;;1.32;;
43552;SDS011;29153;42.696;23.218;2023-07-31T10:38:12;4.30;;;1.10;;
43552;SDS011;29153;42.696;23.218;2023-07-31T10:40:40;3.98;;;1.22;;
43552;SDS011;29153;42.696;23.218;2023-07-31T10:43:07;4.15;;;1.27;;
43552;SDS011;29153;42.696;23.218;2023-07-31T10:45:41;3.30;;;0.98;;
43552;SDS011;29153;42.696;23.218;2023-07-31T10:48:13;2.20;;;1.07;;
43552;SDS011;29153;42.696;23.218;2023-07-31T10:50:51;11.88;;;1.75;;
43552;SDS011;29153;42.696;23.218;2023-07-31T10:53:24;13.90;;;1.50;;
43552;SDS011;29153;42.696;23.218;2023-07-31T10:55:52;4.40;;;1.10;;
43552;SDS011;29153;42.696;23.218;2023-07-31T10:58:21;4.55;;;1.10;;
43552;SDS011;29153;42.696;23.218;2023-07-31T11:00:49;2.50;;;1.00;;
43552;SDS011;29153;42.696;23.218;2023-07-31T11:03:20;5.37;;;1.10;;
43552;SDS011;29153;42.696;23.218;2023-07-31T11:08:33;4.58;;;1.35;;
43552;SDS011;29153;42.696;23.218;2023-07-31T11:13:33;5.90;;;1.20;;
43552;SDS011;29153;42.696;23.218;2023-07-31T11:16:02;4.85;;;1.22;;
43552;SDS011;29153;42.696;23.218;2023-07-31T11:18:30;4.15;;;1.05;;
43552;SDS011;29153;42.696;23.218;2023-07-31T11:20:58;6.00;;;1.52;;
43552;SDS011;29153;42.696;23.218;2023-07-31T11:25:53;5.58;;;1.10;;
43552;SDS011;29153;42.696;23.218;2023-07-31T11:28:31;3.72;;;1.37;;
43552;SDS011;29153;42.696;23.218;2023-07-31T11:30:52;5.17;;;1.40;;
43552;SDS011;29153;42.696;23.218;2023-07-31T11:33:22;7.50;;;1.57;;
43552;SDS011;29153;42.696;23.218;2023-07-31T11:35:50;4.00;;;1.85;;
43552;SDS011;29153;42.696;23.218;2023-07-31T11:38:24;5.50;;;2.02;;
43552;SDS011;29153;42.696;23.218;2023-07-31T11:40:53;3.30;;;1.40;;
43552;SDS011;29153;42.696;23.218;2023-07-31T11:43:23;3.83;;;1.80;;
43552;SDS011;29153;42.696;23.218;2023-07-31T11:45:54;3.25;;;1.82;;
43552;SDS011;29153;42.696;23.218;2023-07-31T11:48:25;6.67;;;2.10;;
43552;SDS011;29153;42.696;23.218;2023-07-31T11:50:57;3.52;;;2.22;;
43552;SDS011;29153;42.696;23.218;2023-07-31T11:53:29;5.85;;;2.52;;
43552;SDS011;29153;42.696;23.218;2023-07-31T11:55:55;4.85;;;2.42;;
43552;SDS011;29153;42.696;23.218;2023-07-31T11:58:27;4.12;;;2.75;;
43552;SDS011;29153;42.696;23.218;2023-07-31T12:00:57;4.15;;;2.85;;
43552;SDS011;29153;42.696;23.218;2023-07-31T12:03:25;7.65;;;3.65;;
43552;SDS011;29153;42.696;23.218;2023-07-31T12:05:54;6.67;;;4.30;;
43552;SDS011;29153;42.696;23.218;2023-07-31T12:08:22;6.55;;;4.25;;
43552;SDS011;29153;42.696;23.218;2023-07-31T12:10:51;8.55;;;4.78;;
43552;SDS011;29153;42.696;23.218;2023-07-31T12:13:22;5.90;;;4.33;;
43552;SDS011;29153;42.696;23.218;2023-07-31T12:16:00;5.53;;;4.30;;
43552;SDS011;29153;42.696;23.218;2023-07-31T12:18:27;6.47;;;4.33;;
43552;SDS011;29153;42.696;23.218;2023-07-31T12:20:58;6.28;;;3.70;;
43552;SDS011;29153;42.696;23.218;2023-07-31T12:23:27;6.00;;;3.25;;
43552;SDS011;29153;42.696;23.218;2023-07-31T12:26:17;6.50;;;3.25;;
43552;SDS011;29153;42.696;23.218;2023-07-31T12:28:50;6.03;;;4.37;;
43552;SDS011;29153;42.696;23.218;2023-07-31T12:31:16;13.08;;;4.42;;
43552;SDS011;29153;42.696;23.218;2023-07-31T12:33:49;5.87;;;4.10;;
43552;SDS011;29153;42.696;23.218;2023-07-31T12:36:18;5.72;;;3.87;;
43552;SDS011;29153;42.696;23.218;2023-07-31T12:38:47;6.42;;;4.00;;
43552;SDS011;29153;42.696;23.218;2023-07-31T12:41:16;5.62;;;4.12;;
43552;SDS011;29153;42.696;23.218;2023-07-31T12:43:45;11.90;;;4.62;;
43552;SDS011;29153;42.696;23.218;2023-07-31T12:46:12;6.03;;;4.78;;
43552;SDS011;29153;42.696;23.218;2023-07-31T12:51:09;9.78;;;4.62;;
43552;SDS011;29153;42.696;23.218;2023-07-31T12:53:39;5.97;;;4.25;;
43552;SDS011;29153;42.696;23.218;2023-07-31T12:56:09;8.28;;;5.45;;
43552;SDS011;29153;42.696;23.218;2023-07-31T12:58:36;7.50;;;5.20;;
43552;SDS011;29153;42.696;23.218;2023-07-31T13:01:03;6.37;;;5.17;;
43552;SDS011;29153;42.696;23.218;2023-07-31T13:03:32;9.03;;;4.17;;
43552;SDS011;29153;42.696;23.218;2023-07-31T13:06:02;8.30;;;4.12;;
43552;SDS011;29153;42.696;23.218;2023-07-31T13:08:31;5.80;;;3.80;;
43552;SDS011;29153;42.696;23.218;2023-07-31T13:10:58;5.28;;;3.83;;
43552;SDS011;29153;42.696;23.218;2023-07-31T13:13:26;6.60;;;4.25;;
43552;SDS011;29153;42.696;23.218;2023-07-31T13:15:55;8.63;;;4.30;;
43552;SDS011;29153;42.696;23.218;2023-07-31T13:18:22;9.40;;;3.70;;
43552;SDS011;29153;42.696;23.218;2023-07-31T13:23:17;5.47;;;2.60;;
43552;SDS011;29153;42.696;23.218;2023-07-31T13:25:44;6.28;;;3.40;;
43552;SDS011;29153;42.696;23.218;2023-07-31T13:30:40;6.35;;;3.33;;
43552;SDS011;29153;42.696;23.218;2023-07-31T13:33:07;5.08;;;3.30;;
43552;SDS011;29153;42.696;23.218;2023-07-31T13:35:36;6.00;;;3.35;;
43552;SDS011;29153;42.696;23.218;2023-07-31T13:38:04;5.78;;;3.50;;
43552;SDS011;29153;42.696;23.218;2023-07-31T13:40:32;5.58;;;2.90;;
43552;SDS011;29153;42.696;23.218;2023-07-31T13:43:03;5.10;;;3.02;;
43552;SDS011;29153;42.696;23.218;2023-07-31T13:45:31;6.70;;;3.30;;
43552;SDS011;29153;42.696;23.218;2023-07-31T13:47:59;6.05;;;3.20;;
43552;SDS011;29153;42.696;23.218;2023-07-31T13:50:28;7.10;;;3.50;;
43552;SDS011;29153;42.696;23.218;2023-07-31T13:53:00;7.45;;;3.33;;
43552;SDS011;29153;42.696;23.218;2023-07-31T13:55:28;4.70;;;3.30;;
43552;SDS011;29153;42.696;23.218;2023-07-31T13:57:56;6.78;;;3.45;;
43552;SDS011;29153;42.696;23.218;2023-07-31T14:00:23;6.40;;;3.17;;
43552;SDS011;29153;42.696;23.218;2023-07-31T14:02:51;3.95;;;2.77;;
43552;SDS011;29153;42.696;23.218;2023-07-31T14:05:18;6.37;;;3.70;;
43552;SDS011;29153;42.696;23.218;2023-07-31T14:07:47;3.95;;;3.22;;
43552;SDS011;29153;42.696;23.218;2023-07-31T14:10:14;4.75;;;3.12;;
43552;SDS011;29153;42.696;23.218;2023-07-31T14:12:43;3.90;;;2.65;;
43552;SDS011;29153;42.696;23.218;2023-07-31T14:15:11;4.60;;;2.77;;
43552;SDS011;29153;42.696;23.218;2023-07-31T14:17:40;4.75;;;3.00;;
43552;SDS011;29153;42.696;23.218;2023-07-31T14:20:08;4.05;;;2.90;;
43552;SDS011;29153;42.696;23.218;2023-07-31T14:22:37;3.65;;;2.52;;
43552;SDS011;29153;42.696;23.218;2023-07-31T14:25:05;5.58;;;2.65;;
43552;SDS011;29153;42.696;23.218;2023-07-31T14:27:37;5.10;;;2.77;;
43552;SDS011;29153;42.696;23.218;2023-07-31T14:30:04;8.15;;;2.77;;
43552;SDS011;29153;42.696;23.218;2023-07-31T14:32:32;3.50;;;2.58;;
43552;SDS011;29153;42.696;23.218;2023-07-31T14:35:00;3.67;;;2.72;;
43552;SDS011;29153;42.696;23.218;2023-07-31T14:37:28;3.58;;;2.30;;
43552;SDS011;29153;42.696;23.218;2023-07-31T14:40:11;5.30;;;2.45;;
43552;SDS011;29153;42.696;23.218;2023-07-31T14:42:42;5.75;;;2.40;;
43552;SDS011;29153;42.696;23.218;2023-07-31T14:45:09;4.17;;;2.40;;
43552;SDS011;29153;42.696;23.218;2023-07-31T14:47:37;5.33;;;2.50;;
43552;SDS011;29153;42.696;23.218;2023-07-31T14:50:05;5.25;;;2.30;;
43552;SDS011;29153;42.696;23.218;2023-07-31T14:52:33;3.87;;;2.17;;
43552;SDS011;29153;42.696;23.218;2023-07-31T14:55:01;9.50;;;2.37;;
43552;SDS011;29153;42.696;23.218;2023-07-31T14:57:28;3.70;;;2.35;;
43552;SDS011;29153;42.696;23.218;2023-07-31T15:00:11;3.80;;;2.10;;
43552;SDS011;29153;42.696;23.218;2023-07-31T15:02:26;4.55;;;2.27;;
43552;SDS011;29153;42.696;23.218;2023-07-31T15:04:53;3.30;;;1.80;;
43552;SDS011;29153;42.696;23.218;2023-07-31T15:09:48;3.40;;;1.82;;
43552;SDS011;29153;42.696;23.218;2023-07-31T15:14:42;3.75;;;1.92;;
43552;SDS011;29153;42.696;23.218;2023-07-31T15:24:31;3.22;;;1.62;;
43552;SDS011;29153;42.696;23.218;2023-07-31T15:26:58;4.75;;;1.98;;